createdAt,value
2018-08-19T00:02:23.133Z,48.53
2018-08-19T00:05:08.944Z,47.93
2018-08-19T00:07:38.050Z,47.88
2018-08-19T00:10:07.495Z,48.74
2018-08-19T00:12:44.478Z,48.16
2018-08-19T00:15:13.974Z,48.86
2018-08-19T00:17:43.149Z,48.94
2018-08-19T00:20:13.483Z,49.24
2018-08-19T00:22:42.625Z,50.36
2018-08-19T00:25:22.097Z,49.55
2018-08-19T00:27:51.242Z,50.98
2018-08-19T00:30:20.398Z,51.18
2018-08-19T00:32:49.615Z,51.02
2018-08-19T00:35:18.766Z,50.77
2018-08-19T00:37:47.906Z,51.32
2018-08-19T00:40:17.074Z,51.00
2018-08-19T00:42:46.214Z,50.40
2018-08-19T00:45:16.938Z,50.98
2018-08-19T00:47:46.446Z,52.01
2018-08-19T00:50:15.595Z,52.22
2018-08-19T00:52:44.731Z,52.29
2018-08-19T00:55:13.878Z,51.90
2018-08-19T00:57:44.874Z,53.03
2018-08-19T01:00:14.031Z,53.05
2018-08-19T01:02:43.170Z,51.79
2018-08-19T01:05:12.322Z,52.12
2018-08-19T01:07:41.577Z,52.90
2018-08-19T01:10:10.822Z,53.52
2018-08-19T01:12:39.970Z,53.52
2018-08-19T01:15:13.939Z,54.12
2018-08-19T01:17:44.202Z,54.13
2018-08-19T01:20:22.619Z,54.72
2018-08-19T01:22:51.837Z,54.36
2018-08-19T01:25:20.934Z,53.99
2018-08-19T01:27:50.719Z,54.28
2018-08-19T01:30:22.470Z,54.07
2018-08-19T01:32:51.667Z,53.47
2018-08-19T01:35:33.654Z,54.79
2018-08-19T01:38:02.807Z,54.33
2018-08-19T01:40:31.955Z,54.52
2018-08-19T01:43:01.098Z,55.23
2018-08-19T01:45:30.255Z,54.91
2018-08-19T01:47:59.388Z,54.28
2018-08-19T01:50:29.210Z,54.83
2018-08-19T01:52:59.329Z,55.01
2018-08-19T01:55:31.513Z,54.24
2018-08-19T01:58:00.654Z,54.15
2018-08-19T02:00:29.798Z,53.54
2018-08-19T02:03:03.678Z,53.46
2018-08-19T02:05:32.854Z,54.17
2018-08-19T02:08:03.171Z,54.38
2018-08-19T02:10:34.030Z,55.17
2018-08-19T02:13:03.518Z,54.61
2018-08-19T02:15:33.246Z,54.34
2018-08-19T02:18:03.655Z,54.66
2018-08-19T02:20:35.442Z,55.37
2018-08-19T02:23:06.711Z,55.80
2018-08-19T02:25:48.108Z,55.88
2018-08-19T02:28:22.154Z,55.88
2018-08-19T02:31:02.706Z,55.02
2018-08-19T02:33:35.400Z,55.02
2018-08-19T02:36:07.426Z,55.31
2018-08-19T02:38:38.614Z,55.74
2018-08-19T02:41:07.794Z,55.54
2018-08-19T02:43:49.827Z,54.89
2018-08-19T02:46:18.970Z,55.56
2018-08-19T02:48:50.265Z,55.99
2018-08-19T02:51:20.473Z,56.34
2018-08-19T02:53:50.727Z,56.33
2018-08-19T02:56:20.522Z,56.54
2018-08-19T02:58:49.713Z,55.98
2018-08-19T03:01:19.010Z,56.76
2018-08-19T03:03:48.154Z,56.52
2018-08-19T03:06:17.318Z,56.46
2018-08-19T03:08:51.814Z,55.50
2018-08-19T03:11:22.150Z,55.48
2018-08-19T03:13:51.302Z,55.59
2018-08-19T03:16:20.446Z,55.87
2018-08-19T03:18:51.909Z,56.69
2018-08-19T03:21:22.118Z,57.18
2018-08-19T03:23:52.738Z,56.13
2018-08-19T03:26:21.882Z,57.07
2018-08-19T03:28:51.009Z,56.58
2018-08-19T03:31:20.154Z,57.04
2018-08-19T03:33:49.295Z,56.00
2018-08-19T03:36:18.442Z,56.51
2018-08-19T03:38:47.583Z,56.06
2018-08-19T03:41:16.726Z,55.82
2018-08-19T03:43:58.942Z,55.92
2018-08-19T03:46:29.570Z,56.56
2018-08-19T03:48:58.713Z,56.51
2018-08-19T03:51:27.858Z,56.35
2018-08-19T03:53:56.983Z,56.65
2018-08-19T03:56:27.473Z,56.62
2018-08-19T03:59:00.557Z,57.14
2018-08-19T04:01:42.749Z,56.99
2018-08-19T04:04:14.314Z,55.90
2018-08-19T04:06:43.805Z,56.40
2018-08-19T04:09:13.014Z,56.36
2018-08-19T04:11:42.173Z,56.36
2018-08-19T04:14:28.214Z,56.19
2018-08-19T04:17:00.013Z,56.33
2018-08-19T04:19:29.617Z,56.79
2018-08-19T04:22:02.594Z,57.10
2018-08-19T04:24:32.021Z,56.98
2018-08-19T04:27:06.694Z,57.15
2018-08-19T04:29:36.298Z,56.88
2018-08-19T04:32:06.522Z,57.24
2018-08-19T04:34:35.655Z,57.16
2018-08-19T04:37:04.814Z,57.08
2018-08-19T04:39:33.978Z,56.98
2018-08-19T04:42:03.219Z,57.54
2018-08-19T04:44:32.358Z,57.32
2018-08-19T04:47:14.418Z,57.92
2018-08-19T04:49:43.614Z,58.05
2018-08-19T04:52:14.738Z,57.62
2018-08-19T04:54:43.877Z,57.46
2018-08-19T04:57:13.302Z,56.89
2018-08-19T04:59:43.315Z,57.12
2018-08-19T05:02:13.629Z,57.78
2018-08-19T05:04:42.731Z,57.77
2018-08-19T05:07:11.991Z,57.51
2018-08-19T05:09:41.163Z,57.41
2018-08-19T05:12:10.315Z,56.53
2018-08-19T05:14:39.463Z,57.31
2018-08-19T05:17:08.606Z,57.02
2018-08-19T05:19:37.763Z,56.57
2018-08-19T05:22:10.988Z,56.93
2018-08-19T05:24:40.378Z,57.91
2018-08-19T05:27:10.074Z,56.92
2018-08-19T05:29:39.382Z,56.83
2018-08-19T05:32:14.140Z,56.60
2018-08-19T05:34:44.182Z,57.40
2018-08-19T05:37:14.198Z,56.83
2018-08-19T05:39:51.198Z,57.00
2018-08-19T05:42:20.314Z,56.84
2018-08-19T05:44:49.448Z,57.22
2018-08-19T05:47:18.840Z,56.46
2018-08-19T05:49:48.730Z,56.19
2018-08-19T05:52:19.170Z,56.12
2018-08-19T05:54:54.810Z,56.49
2018-08-19T05:57:23.962Z,56.01
2018-08-19T05:59:54.338Z,55.96
2018-08-19T06:02:32.855Z,56.05
2018-08-19T06:05:03.369Z,56.48
2018-08-19T06:07:32.649Z,55.88
2018-08-19T06:10:01.870Z,55.82
2018-08-19T06:12:31.038Z,54.43
2018-08-19T06:15:01.399Z,54.45
2018-08-19T06:17:30.566Z,54.47
2018-08-19T06:19:59.722Z,55.04
2018-08-19T06:22:38.941Z,54.71
2018-08-19T06:25:08.226Z,55.00
2018-08-19T06:27:41.456Z,56.04
2018-08-19T06:30:10.918Z,55.58
2018-08-19T06:32:40.090Z,54.88
2018-08-19T06:35:09.375Z,54.23
2018-08-19T06:37:38.527Z,52.98
2018-08-19T06:40:10.162Z,53.73
2018-08-19T06:42:39.298Z,54.17
2018-08-19T06:45:09.615Z,54.79
2018-08-19T06:47:38.823Z,55.33
2018-08-19T06:50:19.543Z,54.72
2018-08-19T06:52:48.774Z,53.75
2018-08-19T06:55:18.366Z,52.16
2018-08-19T06:57:47.524Z,51.45
2018-08-19T07:00:20.773Z,47.31
2018-08-19T07:02:49.939Z,47.31
2018-08-19T07:05:19.078Z,47.96
2018-08-19T07:07:48.221Z,47.70
2018-08-19T07:10:26.458Z,49.10
2018-08-19T07:13:00.468Z,48.81
2018-08-19T07:15:29.652Z,48.34
2018-08-19T07:17:58.814Z,47.06
2018-08-19T07:20:27.947Z,48.08
2018-08-19T07:22:57.094Z,47.79
2018-08-19T07:25:26.237Z,48.27
2018-08-19T07:27:55.387Z,46.82
2018-08-19T07:30:24.521Z,46.23
2018-08-19T07:32:53.658Z,46.97
2018-08-19T07:35:22.806Z,46.51
2018-08-19T07:37:51.951Z,46.01
2018-08-19T07:40:21.087Z,46.04
2018-08-19T07:42:50.230Z,47.27
2018-08-19T07:45:19.365Z,45.76
2018-08-19T07:47:48.506Z,45.56
2018-08-19T07:50:17.674Z,45.93
2018-08-19T07:52:46.814Z,46.38
2018-08-19T07:55:15.953Z,45.84
2018-08-19T07:57:45.103Z,46.00
2018-08-19T08:00:14.260Z,44.12
2018-08-19T08:02:43.422Z,44.48
2018-08-19T08:05:12.562Z,44.05
2018-08-19T08:07:47.054Z,44.08
2018-08-19T08:10:16.244Z,43.89
2018-08-19T08:12:46.248Z,43.50
2018-08-19T08:15:15.382Z,43.48
2018-08-19T08:17:44.531Z,44.43
2018-08-19T08:20:13.679Z,42.98
2018-08-19T08:22:42.814Z,42.84
2018-08-19T08:25:12.361Z,42.08
2018-08-19T08:27:42.741Z,42.69
2018-08-19T08:30:12.879Z,41.76
2018-08-19T08:32:45.664Z,41.47
2018-08-19T08:35:14.806Z,41.98
2018-08-19T08:37:43.946Z,40.81
2018-08-19T08:40:13.095Z,41.15
2018-08-19T08:42:44.082Z,40.63
2018-08-19T08:45:14.424Z,41.10
2018-08-19T08:47:43.691Z,40.03
2018-08-19T08:50:13.530Z,40.44
2018-08-19T08:52:44.566Z,41.44
2018-08-19T08:55:14.246Z,40.18
2018-08-19T08:57:43.390Z,40.73
2018-08-19T09:00:14.119Z,41.36
2018-08-19T09:02:43.262Z,39.96
2018-08-19T09:05:12.918Z,40.46
2018-08-19T09:07:42.126Z,39.06
2018-08-19T09:10:13.496Z,38.23
2018-08-19T09:12:46.851Z,40.18
2018-08-19T09:15:16.117Z,38.28
2018-08-19T09:17:45.258Z,38.43
2018-08-19T09:20:14.414Z,38.25
2018-08-19T09:22:44.361Z,39.60
2018-08-19T09:25:13.532Z,39.27
2018-08-19T09:27:43.086Z,39.57
2018-08-19T09:30:20.786Z,38.78
2018-08-19T09:32:59.969Z,38.81
2018-08-19T09:35:31.466Z,36.04
2018-08-19T09:38:05.838Z,37.09
2018-08-19T09:40:35.715Z,38.55
2018-08-19T09:43:05.495Z,38.59
2018-08-19T09:45:34.650Z,38.27
2018-08-19T09:48:04.634Z,36.75
2018-08-19T09:50:34.630Z,35.72
2018-08-19T09:53:04.022Z,36.02
2018-08-19T09:55:38.434Z,35.73
2018-08-19T09:58:13.382Z,35.98
2018-08-19T10:00:47.757Z,36.79
2018-08-19T10:03:17.003Z,36.64
2018-08-19T10:05:46.197Z,36.95
2018-08-19T10:08:15.363Z,35.92
2018-08-19T10:10:44.537Z,35.01
2018-08-19T10:13:16.013Z,35.35
2018-08-19T10:15:45.152Z,35.42
2018-08-19T10:18:14.302Z,34.77
2018-08-19T10:20:43.454Z,35.15
2018-08-19T10:23:12.758Z,35.15
2018-08-19T10:25:41.977Z,35.59
2018-08-19T10:28:11.131Z,35.64
2018-08-19T10:30:50.426Z,35.70
2018-08-19T10:33:21.513Z,35.99
2018-08-19T10:35:50.697Z,35.61
2018-08-19T10:38:19.839Z,35.42
2018-08-19T10:40:55.595Z,36.13
2018-08-19T10:43:24.727Z,36.27
2018-08-19T10:45:53.870Z,34.89
2018-08-19T10:48:23.006Z,34.96
2018-08-19T10:50:52.147Z,35.94
2018-08-19T10:53:28.482Z,36.36
2018-08-19T10:56:00.169Z,34.85
2018-08-19T10:58:29.393Z,36.30
2018-08-19T11:00:58.507Z,35.41
2018-08-19T11:03:27.654Z,34.66
2018-08-19T11:05:57.066Z,34.86
2018-08-19T11:08:26.206Z,33.90
2018-08-19T11:10:55.346Z,34.45
2018-08-19T11:13:25.294Z,34.18
2018-08-19T11:15:55.471Z,34.50
2018-08-19T11:18:30.946Z,36.10
2018-08-19T11:21:07.143Z,35.43
2018-08-19T11:23:39.262Z,35.26
2018-08-19T11:26:10.466Z,35.35
2018-08-19T11:28:48.256Z,35.06
2018-08-19T11:31:25.382Z,35.34
2018-08-19T11:33:56.372Z,35.13
2018-08-19T11:36:32.098Z,32.74
2018-08-19T11:39:01.322Z,33.85
2018-08-19T11:41:34.090Z,33.97
2018-08-19T11:44:10.319Z,34.68
2018-08-19T11:46:40.522Z,34.18
2018-08-19T11:49:19.245Z,34.46
2018-08-19T11:51:53.838Z,34.54
2018-08-19T11:54:23.810Z,35.72
2018-08-19T11:56:59.671Z,34.56
2018-08-19T11:59:34.028Z,33.48
2018-08-19T12:02:03.241Z,32.97
2018-08-19T12:04:32.370Z,34.22
2018-08-19T12:07:01.521Z,33.81
2018-08-19T12:09:30.679Z,34.82
2018-08-19T12:11:59.791Z,34.25
2018-08-19T12:14:32.242Z,33.03
2018-08-19T12:17:02.403Z,32.21
2018-08-19T12:19:32.470Z,33.26
2018-08-19T12:22:03.430Z,32.67
2018-08-19T12:24:34.904Z,32.83
2018-08-19T12:27:05.141Z,33.30
2018-08-19T12:29:35.463Z,33.85
2018-08-19T12:32:18.750Z,33.13
2018-08-19T12:34:49.990Z,34.11
2018-08-19T12:37:20.391Z,33.94
2018-08-19T12:39:49.818Z,33.12
2018-08-19T12:42:19.019Z,33.02
2018-08-19T12:44:58.255Z,32.96
2018-08-19T12:47:28.067Z,33.85
2018-08-19T12:50:00.333Z,33.05
2018-08-19T12:52:30.709Z,34.15
2018-08-19T12:55:05.074Z,34.00
2018-08-19T12:57:34.798Z,34.41
2018-08-19T13:00:14.695Z,34.63
2018-08-19T13:02:45.004Z,33.50
2018-08-19T13:05:15.201Z,33.87
2018-08-19T13:07:44.497Z,32.81
2018-08-19T13:10:13.638Z,32.11
2018-08-19T13:12:49.960Z,33.36
2018-08-19T13:15:19.111Z,32.36
2018-08-19T13:17:48.271Z,32.03
2018-08-19T13:27:34.626Z,33.78
2018-08-19T13:30:03.762Z,34.91
2018-08-19T13:32:32.919Z,33.29
2018-08-19T13:35:02.056Z,33.83
2018-08-19T13:37:31.198Z,33.67
2018-08-19T13:40:00.334Z,33.75
2018-08-19T13:42:29.474Z,33.33
2018-08-19T13:45:03.955Z,33.76
2018-08-19T13:47:33.091Z,33.79
2018-08-19T13:50:02.230Z,33.64
2018-08-19T13:52:31.372Z,32.82
2018-08-19T13:55:02.537Z,34.15
2018-08-19T13:57:31.690Z,34.75
2018-08-19T14:00:00.829Z,32.76
2018-08-19T14:02:29.967Z,34.22
2018-08-19T14:04:59.114Z,33.49
2018-08-19T14:07:28.274Z,33.45
2018-08-19T14:09:57.419Z,33.78
2018-08-19T14:12:26.570Z,33.81
2018-08-19T14:14:55.722Z,33.06
2018-08-19T14:17:24.862Z,32.42
2018-08-19T14:19:54.026Z,32.62
2018-08-19T14:22:23.167Z,32.94
2018-08-19T14:24:52.306Z,33.56
2018-08-19T14:27:28.262Z,32.74
2018-08-19T14:29:57.428Z,32.47
2018-08-19T14:32:36.170Z,34.23
2018-08-19T14:35:05.711Z,32.86
2018-08-19T14:37:34.858Z,33.13
2018-08-19T14:40:04.844Z,33.40
2018-08-19T14:42:33.973Z,35.06
2018-08-19T14:45:03.102Z,35.21
2018-08-19T14:47:32.243Z,33.14
2018-08-19T14:50:01.438Z,32.77
2018-08-19T14:52:30.583Z,32.40
2018-08-19T14:54:59.730Z,33.10
2018-08-19T14:57:28.875Z,33.65
2018-08-19T14:59:58.019Z,32.89
2018-08-19T15:02:27.153Z,33.71
2018-08-19T15:04:56.315Z,33.47
2018-08-19T15:07:25.495Z,32.97
2018-08-19T15:09:55.096Z,33.26
2018-08-19T15:12:25.972Z,32.55
2018-08-19T15:14:59.365Z,33.20
2018-08-19T15:17:28.489Z,33.68
2018-08-19T15:19:57.824Z,33.61
2018-08-19T15:22:26.818Z,33.13
2018-08-19T15:24:55.987Z,33.83
2018-08-19T15:27:25.130Z,33.20
2018-08-19T15:29:55.002Z,34.30
2018-08-19T15:32:25.249Z,33.51
2018-08-19T15:34:54.190Z,32.77
2018-08-19T15:37:23.319Z,33.15
2018-08-19T15:39:52.503Z,33.38
2018-08-19T15:42:21.656Z,33.16
2018-08-19T15:44:50.797Z,32.76
2018-08-19T15:47:19.992Z,33.26
2018-08-19T15:50:07.925Z,32.93
2018-08-19T15:52:37.066Z,34.18
2018-08-19T15:55:06.295Z,33.98
2018-08-19T15:57:35.427Z,34.06
2018-08-19T16:00:04.588Z,34.02
2018-08-19T16:02:33.714Z,33.94
2018-08-19T16:05:06.750Z,34.37
2018-08-19T16:07:35.987Z,32.97
2018-08-19T16:10:05.582Z,33.57
2018-08-19T16:12:36.358Z,33.57
2018-08-19T16:15:08.610Z,34.12
2018-08-19T16:17:37.738Z,34.39
2018-08-19T16:20:07.174Z,33.41
2018-08-19T16:22:36.307Z,32.91
2018-08-19T16:25:05.483Z,33.37
2018-08-19T16:27:34.615Z,34.66
2018-08-19T16:30:03.826Z,33.66
2018-08-19T16:32:32.974Z,33.39
2018-08-19T16:35:02.185Z,33.62
2018-08-19T16:37:31.345Z,33.46
2018-08-19T16:40:00.635Z,33.47
2018-08-19T16:42:29.766Z,34.69
2018-08-19T16:44:58.931Z,34.32
2018-08-19T16:47:28.066Z,34.95
2018-08-19T16:49:57.232Z,34.99
2018-08-19T16:52:26.360Z,35.03
2018-08-19T16:54:55.494Z,35.17
2018-08-19T16:57:24.738Z,35.13
2018-08-19T16:59:53.783Z,35.06
2018-08-19T17:02:23.123Z,34.34
2018-08-19T17:04:53.134Z,35.62
2018-08-19T17:07:23.274Z,34.76
2018-08-19T17:09:53.425Z,36.36
2018-08-19T17:12:23.591Z,36.00
2018-08-19T17:14:53.611Z,36.21
2018-08-19T17:17:23.684Z,36.21
2018-08-19T17:19:53.851Z,35.38
2018-08-19T17:22:23.961Z,36.00
2018-08-19T17:24:53.978Z,37.37
2018-08-19T17:27:25.538Z,37.38
2018-08-19T17:29:54.666Z,37.80
2018-08-19T17:32:24.420Z,37.50
2018-08-19T17:34:54.363Z,37.60
2018-08-19T17:37:24.587Z,36.69
2018-08-19T17:39:54.941Z,38.11
2018-08-19T17:42:24.734Z,39.46
2018-08-19T17:44:54.835Z,39.09
2018-08-19T17:47:24.971Z,38.43
2018-08-19T17:49:55.070Z,38.05
2018-08-19T17:52:25.148Z,38.43
2018-08-19T17:54:55.210Z,38.33
2018-08-19T17:57:25.339Z,40.81
2018-08-19T17:59:55.456Z,40.18
2018-08-19T18:02:25.582Z,41.37
2018-08-19T18:04:55.690Z,40.53
2018-08-19T18:07:28.529Z,40.66
2018-08-19T18:09:58.903Z,41.98
2018-08-19T18:12:28.058Z,42.39
2018-08-19T18:14:57.304Z,42.32
2018-08-19T18:17:26.358Z,43.80
2018-08-19T18:19:56.345Z,44.23
2018-08-19T18:22:26.341Z,43.40
2018-08-19T18:25:01.450Z,43.20
2018-08-19T18:27:30.590Z,42.35
2018-08-19T18:29:59.744Z,42.25
2018-08-19T18:32:28.894Z,43.54
2018-08-19T18:34:58.030Z,41.72
2018-08-19T18:37:27.185Z,41.56
2018-08-19T18:39:56.671Z,41.85
2018-08-19T18:42:38.300Z,42.85
2018-08-19T18:45:10.377Z,43.46
2018-08-19T18:47:49.769Z,43.52
2018-08-19T18:50:21.973Z,43.16
2018-08-19T18:52:51.315Z,43.12
2018-08-19T18:55:20.678Z,43.73
2018-08-19T18:57:54.058Z,43.91
2018-08-19T19:00:25.562Z,44.44
2018-08-19T19:02:56.858Z,44.37
2018-08-19T19:05:37.941Z,43.22
2018-08-19T19:08:12.455Z,44.57
2018-08-19T19:10:56.043Z,44.60
2018-08-19T19:13:26.042Z,44.40
2018-08-19T19:15:55.182Z,44.24
2018-08-19T19:18:24.328Z,44.38
2018-08-19T19:21:00.310Z,44.92
2018-08-19T19:23:45.947Z,44.39
2018-08-19T19:26:15.132Z,43.94
2018-08-19T19:28:44.236Z,44.44
2018-08-19T19:31:14.778Z,45.26
2018-08-19T19:33:43.918Z,44.51
2018-08-19T19:36:19.834Z,45.51
2018-08-19T19:38:54.065Z,45.13
2018-08-19T19:41:26.981Z,46.53
2018-08-19T19:43:56.109Z,46.30
2018-08-19T19:46:25.440Z,45.75
2018-08-19T19:48:54.583Z,45.66
2018-08-19T19:51:23.731Z,46.30
2018-08-19T19:53:52.866Z,46.37
2018-08-19T19:56:22.007Z,46.47
2018-08-19T19:58:51.155Z,46.81
2018-08-19T20:01:20.307Z,46.90
2018-08-19T20:03:54.626Z,46.04
2018-08-19T20:06:24.245Z,46.35
2018-08-19T20:08:53.474Z,46.48
2018-08-19T20:11:28.134Z,47.51
2018-08-19T20:14:01.581Z,47.13
2018-08-19T20:16:30.727Z,46.95
2018-08-19T20:18:59.862Z,47.08
2018-08-19T20:21:30.137Z,47.96
2018-08-19T20:23:59.886Z,47.95
2018-08-19T20:26:29.050Z,46.97
2018-08-19T20:29:00.417Z,46.94
2018-08-19T20:31:29.577Z,48.01
2018-08-19T20:33:59.344Z,47.38
2018-08-19T20:36:29.329Z,48.33
2018-08-19T20:38:59.409Z,47.59
2018-08-19T20:41:29.438Z,47.66
2018-08-19T20:43:59.546Z,48.68
2018-08-19T20:46:29.579Z,47.83
2018-08-19T20:48:59.638Z,48.29
2018-08-19T20:51:29.706Z,48.30
2018-08-19T20:53:59.823Z,47.83
2018-08-19T20:56:29.858Z,47.13
2018-08-19T20:58:59.955Z,47.86
2018-08-19T21:01:29.986Z,48.42
2018-08-19T21:04:00.102Z,48.39
2018-08-19T21:06:30.118Z,48.77
2018-08-19T21:09:00.127Z,48.74
2018-08-19T21:11:30.267Z,49.05
2018-08-19T21:14:00.218Z,49.21
2018-08-19T21:16:31.191Z,48.27
2018-08-19T21:19:01.698Z,49.50
2018-08-19T21:21:30.846Z,48.96
2018-08-19T21:24:00.542Z,48.81
2018-08-19T21:26:30.578Z,48.95
2018-08-19T21:29:02.910Z,48.96
2018-08-19T21:31:33.113Z,49.94
2018-08-19T21:34:02.251Z,50.23
2018-08-19T21:36:31.394Z,50.10
2018-08-19T21:39:00.969Z,49.93
2018-08-19T21:41:49.083Z,50.67
2018-08-19T21:44:19.067Z,50.42
2018-08-19T21:46:48.214Z,50.58
2018-08-19T21:49:17.386Z,50.61
2018-08-19T21:51:46.530Z,50.72
2018-08-19T21:54:16.679Z,50.31
2018-08-19T21:56:45.826Z,50.81
2018-08-19T21:59:22.908Z,51.17
2018-08-19T22:01:56.055Z,51.37
2018-08-19T22:04:25.278Z,51.30
2018-08-19T22:06:54.426Z,51.21
2018-08-19T22:09:38.290Z,50.51
2018-08-19T22:12:08.178Z,50.78
2018-08-19T22:14:37.314Z,51.72
2018-08-19T22:17:09.261Z,51.57
2018-08-19T22:19:38.660Z,50.59
2018-08-19T22:22:08.182Z,51.64
2018-08-19T22:24:37.403Z,50.64
2018-08-19T22:27:11.780Z,51.10
2018-08-19T22:29:40.919Z,50.70
2018-08-19T22:32:10.074Z,51.78
2018-08-19T22:34:39.218Z,51.17
2018-08-19T22:37:08.383Z,51.37
2018-08-19T22:39:37.510Z,51.84
2018-08-19T22:42:06.650Z,51.40
2018-08-19T22:44:35.794Z,52.27
2018-08-19T22:47:04.962Z,52.05
2018-08-19T22:49:34.108Z,51.60
2018-08-19T22:52:19.891Z,51.28
2018-08-19T22:54:51.478Z,52.48
2018-08-19T22:57:20.618Z,52.02
2018-08-19T22:59:49.755Z,51.43
2018-08-19T23:02:18.919Z,52.07
2018-08-19T23:04:48.048Z,51.77
2018-08-19T23:07:17.198Z,51.80
2018-08-19T23:09:46.334Z,52.11
2018-08-19T23:12:15.489Z,52.01
2018-08-19T23:15:57.843Z,52.96
2018-08-19T23:18:27.809Z,52.38
2018-08-19T23:20:57.302Z,53.19
2018-08-19T23:23:26.454Z,53.51
2018-08-19T23:25:55.602Z,52.91
2018-08-19T23:28:25.322Z,53.20
2018-08-19T23:30:54.551Z,53.65
2018-08-19T23:33:23.706Z,53.38
2018-08-19T23:35:52.847Z,53.37
2018-08-19T23:38:22.006Z,53.28
2018-08-19T23:40:51.149Z,53.22
2018-08-19T23:43:20.310Z,52.78
2018-08-19T23:45:49.433Z,53.93
2018-08-19T23:48:18.589Z,53.63
2018-08-19T23:50:47.722Z,53.17
2018-08-19T23:53:16.900Z,53.28
2018-08-19T23:55:46.043Z,53.60
2018-08-19T23:58:15.193Z,53.79
